Hovedside
METAR-TAF:

METAR-TAF

Lufthavner :

Luleå lufthavn

Luleå, Sverige

breddegrad: 65-33N, lengdegrad: 022-08E, høyde over havet: 17 m

Gjeldene værobservasjon

Denne rapporten ble laget for 34 minutter siden, klokken 10:20 UTC
Vind 7 kt fra Sør-sørvest, skiftende mellom Sør og Sørvest
Temperatur 13°C
Luftfuktighet 54%
Trykk 996 hPa
Sikt 10 km eller mer
ingen skyer under 1500 m og ingen bygeskyer

METAR: ESPA 211020Z 20007KT 170V230 CAVOK 13/04 Q0996

Tid: 12:54 (10:54 UTC)

Varsel

Denne rapporten ble laget for 54 minutter siden, klokken 10:00 UTC
Varsel gyldig fra 21. klokken 10 UTC til 21. klokken 18 UTC
Vind 8 kt fra Sør-sørvest
Sikt 10 km eller mer
ingen skyer under 1500 m og ingen bygeskyer
Sannsynlighet 40%
fra 21. klokken 17 UTC til 21. klokken 18 UTC
Sikt 10 km eller mer
Brutte skyer i en høyde av 1400 ft
lett regn

TAF: ESPA 211000Z 2110/2118 21008KT CAVOK PROB40 2117/2118 9999 -RA BKN014

Værobservasjoner og værvarsel for over 4000 flyplasser (METAR- og TAF-rapporter).

Tilgjengelige stasjoner er representert av de røde og gule prikkene på kartet.

Hold musepekeren over prikken for å se navnet på stasjonen.

Klikk så for å se værobservasjoner og -varsler.

For å forandre kartet kan du klikke på den grønne knappen med svart kryss for å zoome inn, på den grønne knappen med strek for å zoome ut, eller på de grønne pilene for å se tilstøtende kart.


METAR-TAF: